Time;durP1;ratioP1;P1;durP2;ratioP2;P2;SDS_P1;SDS_P2;PMS_P1;PMS_P2;Temp;Humidity;BMP_temperature;BMP_pressure;BME280_temperature;BME280_humidity;BME280_pressure;Samples;Min_cycle;Max_cycle;Signal;HPM_P1;HPM_P2
2023/02/17 00:01:39;;;;;;;10.95;5.38;;;8.80;99.90;;;;;;8233053;28;20019;-79
2023/02/17 00:05:40;;;;;;;10.98;5.20;;;8.90;99.90;;;;;;8243232;28;20030;-80
2023/02/17 00:09:40;;;;;;;10.27;5.43;;;9.00;99.90;;;;;;8221024;28;20029;-80
2023/02/17 00:13:41;;;;;;;11.02;5.95;;;9.00;99.90;;;;;;8241860;28;20034;-80
2023/02/17 00:17:41;;;;;;;12.18;6.05;;;9.10;99.90;;;;;;8234765;28;20038;-80
2023/02/17 00:21:42;;;;;;;10.07;4.72;;;9.00;99.90;;;;;;8243106;28;20368;-80
2023/02/17 00:25:42;;;;;;;13.85;6.28;;;8.90;99.90;;;;;;8242196;28;20022;-80
2023/02/17 00:29:43;;;;;;;14.93;5.75;;;8.90;99.90;;;;;;8255708;28;20399;-80
2023/02/17 00:33:44;;;;;;;13.40;6.00;;;8.90;99.90;;;;;;8260538;28;20575;-79
2023/02/17 00:37:44;;;;;;;11.27;5.38;;;8.90;99.90;;;;;;8232328;28;20030;-80
2023/02/17 00:41:45;;;;;;;13.32;5.68;;;8.90;99.90;;;;;;8224258;28;1048922;-80
2023/02/17 00:45:45;;;;;;;11.32;5.85;;;8.80;99.90;;;;;;8239994;28;20058;-80
2023/02/17 00:49:46;;;;;;;13.82;5.80;;;8.80;99.90;;;;;;8234419;28;20031;-80
2023/02/17 00:53:46;;;;;;;11.15;5.32;;;8.90;99.90;;;;;;8231493;28;20229;-80
2023/02/17 00:57:47;;;;;;;12.65;5.93;;;8.90;99.90;;;;;;8245941;28;20046;-79
2023/02/17 01:01:47;;;;;;;13.95;5.50;;;8.70;99.90;;;;;;8238554;28;20198;-78
2023/02/17 01:05:49;;;;;;;10.30;5.68;;;8.70;99.90;;;;;;8244475;28;20025;-79
2023/02/17 01:09:49;;;;;;;11.23;5.60;;;8.80;99.90;;;;;;8266208;28;20055;-79
2023/02/17 01:13:50;;;;;;;12.95;6.20;;;8.90;99.90;;;;;;8260014;28;20027;-79
2023/02/17 01:17:51;;;;;;;9.48;5.25;;;8.80;99.90;;;;;;8240283;28;20029;-79
2023/02/17 01:21:51;;;;;;;10.60;4.93;;;8.60;99.90;;;;;;8246779;28;20062;-79
2023/02/17 01:25:52;;;;;;;11.30;5.43;;;8.60;99.90;;;;;;8240464;28;20592;-79
2023/02/17 01:29:52;;;;;;;12.20;5.20;;;8.70;99.90;;;;;;8237509;28;20030;-79
2023/02/17 01:33:56;;;;;;;11.27;5.38;;;8.70;99.90;;;;;;8238038;28;20499;-79
2023/02/17 01:37:56;;;;;;;11.60;5.13;;;8.70;99.90;;;;;;8251656;28;20022;-79
2023/02/17 01:41:57;;;;;;;10.20;4.90;;;8.80;99.90;;;;;;8244755;28;20031;-79
2023/02/17 01:45:59;;;;;;;10.15;5.47;;;8.90;99.90;;;;;;8247743;28;20018;-78
2023/02/17 01:50:00;;;;;;;14.02;5.57;;;8.70;99.90;;;;;;8257715;28;20077;-79
2023/02/17 01:54:07;;;;;;;10.60;5.57;;;8.80;99.90;;;;;;8242190;28;20038;-78
2023/02/17 01:58:11;;;;;;;12.77;5.30;;;8.80;99.90;;;;;;8239019;28;20058;-78
2023/02/17 02:02:13;;;;;;;8.77;4.43;;;8.80;99.90;;;;;;8232835;28;20113;-79
2023/02/17 02:06:19;;;;;;;11.52;5.07;;;8.70;99.90;;;;;;8240175;28;20113;-79
2023/02/17 02:10:19;;;;;;;8.18;4.82;;;8.80;99.90;;;;;;8242373;28;20026;-79
2023/02/17 02:14:21;;;;;;;10.20;5.38;;;8.80;99.90;;;;;;8245905;28;20031;-79
2023/02/17 02:18:43;;;;;;;10.00;5.20;;;8.80;99.90;;;;;;8251162;28;20094;-78
2023/02/17 02:23:11;;;;;;;10.27;5.40;;;8.80;99.90;;;;;;8250694;28;20549;-79
2023/02/17 02:27:29;;;;;;;9.70;4.88;;;8.80;99.90;;;;;;8236818;28;20030;-79
2023/02/17 02:32:01;;;;;;;9.15;4.13;;;8.70;99.90;;;;;;8245104;28;20030;-78
2023/02/17 02:36:16;;;;;;;9.23;4.95;;;8.70;99.90;;;;;;8226101;28;20512;-79
2023/02/17 02:40:20;;;;;;;9.93;4.75;;;8.70;99.90;;;;;;8250500;28;20105;-79
2023/02/17 02:44:21;;;;;;;9.75;5.50;;;8.80;99.90;;;;;;8237169;28;20034;-78
2023/02/17 02:48:22;;;;;;;10.63;4.88;;;8.70;99.90;;;;;;8255273;28;20096;-78
2023/02/17 02:52:44;;;;;;;8.38;4.65;;;8.70;99.90;;;;;;8240495;28;20038;-78
2023/02/17 02:57:17;;;;;;;10.30;5.18;;;8.70;99.90;;;;;;8235991;28;20031;-79
2023/02/17 03:01:52;;;;;;;9.55;4.82;;;8.80;99.90;;;;;;8246886;28;20097;-79
2023/02/17 03:06:10;;;;;;;9.38;5.18;;;8.70;99.90;;;;;;8233002;28;20495;-79
2023/02/17 03:10:13;;;;;;;13.43;4.45;;;8.60;99.90;;;;;;8229991;28;20057;-79
2023/02/17 03:14:18;;;;;;;9.10;4.10;;;8.70;99.90;;;;;;8233938;28;20018;-79
2023/02/17 03:18:19;;;;;;;8.70;4.43;;;8.70;99.90;;;;;;8232767;28;20495;-79
2023/02/17 03:22:28;;;;;;;8.38;4.47;;;8.70;99.90;;;;;;8252336;28;20026;-79
2023/02/17 03:26:29;;;;;;;7.63;4.20;;;8.70;99.90;;;;;;8263481;28;20056;-79
2023/02/17 03:30:29;;;;;;;11.70;4.88;;;8.60;99.90;;;;;;8248113;28;20033;-79
2023/02/17 03:34:30;;;;;;;9.10;4.43;;;8.60;99.90;;;;;;8230651;28;20047;-79
2023/02/17 03:38:30;;;;;;;8.40;4.70;;;8.60;99.90;;;;;;8235406;28;20038;-79
2023/02/17 03:42:31;;;;;;;9.48;4.75;;;8.60;99.90;;;;;;8255191;28;20038;-77
2023/02/17 03:46:32;;;;;;;10.57;4.22;;;8.60;99.90;;;;;;8230519;28;20119;-79
2023/02/17 03:50:32;;;;;;;8.48;4.82;;;8.70;99.90;;;;;;8255412;28;20037;-78
2023/02/17 03:54:33;;;;;;;11.77;4.20;;;8.60;99.90;;;;;;8255154;28;20055;-78
2023/02/17 03:58:34;;;;;;;7.95;4.18;;;8.60;99.90;;;;;;8254029;28;20019;-79
2023/02/17 04:02:34;;;;;;;10.23;4.18;;;8.80;99.90;;;;;;8229521;28;20050;-79
2023/02/17 04:06:35;;;;;;;12.23;4.57;;;8.70;99.90;;;;;;8227738;28;20029;-78
2023/02/17 04:10:35;;;;;;;9.60;4.90;;;8.80;99.90;;;;;;8226194;28;20031;-79
2023/02/17 04:14:36;;;;;;;10.02;4.50;;;8.70;99.90;;;;;;8243121;28;20027;-79
2023/02/17 04:18:37;;;;;;;10.90;4.63;;;8.70;99.90;;;;;;8243865;28;20039;-78
2023/02/17 04:22:38;;;;;;;8.13;4.32;;;8.50;99.90;;;;;;8219227;28;20085;-79
2023/02/17 04:26:38;;;;;;;10.02;4.63;;;8.60;99.90;;;;;;8233783;28;20049;-79
2023/02/17 04:30:41;;;;;;;8.98;4.63;;;8.60;99.90;;;;;;8218804;28;20022;-78
2023/02/17 04:34:42;;;;;;;10.40;4.32;;;8.50;99.90;;;;;;8246949;28;20503;-79
2023/02/17 04:38:42;;;;;;;9.07;4.30;;;8.60;99.90;;;;;;8233755;28;20077;-79
2023/02/17 04:42:43;;;;;;;8.80;4.07;;;8.70;99.90;;;;;;8261036;28;20034;-79
2023/02/17 04:46:43;;;;;;;12.82;4.05;;;8.60;99.90;;;;;;8243701;28;20026;-79
2023/02/17 04:50:44;;;;;;;7.20;3.30;;;8.60;99.90;;;;;;8248725;28;20031;-78
2023/02/17 04:54:45;;;;;;;5.97;3.17;;;8.60;99.90;;;;;;8253747;28;20624;-79
2023/02/17 04:58:45;;;;;;;9.15;4.10;;;8.60;99.90;;;;;;8234185;28;20031;-78
2023/02/17 05:02:46;;;;;;;7.63;4.13;;;8.60;99.90;;;;;;8223129;28;20022;-79
2023/02/17 05:06:46;;;;;;;9.43;3.92;;;8.60;99.90;;;;;;8232298;28;20026;-79
2023/02/17 05:10:49;;;;;;;7.40;4.03;;;8.60;99.90;;;;;;8240641;28;20036;-79
2023/02/17 05:14:49;;;;;;;10.00;4.40;;;8.50;99.90;;;;;;8262137;28;20047;-79
2023/02/17 05:18:50;;;;;;;7.93;3.50;;;8.50;99.90;;;;;;8233565;28;20034;-79
2023/02/17 05:22:51;;;;;;;10.77;3.83;;;8.50;99.90;;;;;;8249993;28;20026;-79
2023/02/17 05:26:51;;;;;;;7.88;4.15;;;8.50;99.90;;;;;;8226350;28;20026;-79
2023/02/17 05:30:52;;;;;;;9.55;4.43;;;8.60;99.90;;;;;;8224303;28;20065;-79
2023/02/17 05:34:52;;;;;;;5.57;3.00;;;8.60;99.90;;;;;;8229466;28;20026;-79
2023/02/17 05:38:53;;;;;;;8.65;3.88;;;8.40;99.90;;;;;;8219494;28;20050;-79
2023/02/17 05:42:54;;;;;;;7.70;3.60;;;8.50;99.90;;;;;;8224453;28;20112;-79
2023/02/17 05:46:54;;;;;;;7.30;4.15;;;8.40;99.90;;;;;;8259518;28;20085;-78
2023/02/17 05:50:55;;;;;;;5.97;3.40;;;8.50;99.90;;;;;;8241154;28;20026;-78
2023/02/17 05:54:55;;;;;;;7.53;3.50;;;8.50;99.90;;;;;;8237338;28;20053;-78
2023/02/17 05:58:56;;;;;;;8.05;3.45;;;8.50;99.90;;;;;;8258003;28;20031;-79
2023/02/17 06:02:56;;;;;;;6.55;3.47;;;8.60;99.90;;;;;;8240760;28;20025;-78
2023/02/17 06:06:57;;;;;;;11.98;3.90;;;8.60;99.90;;;;;;8237181;28;20026;-79
2023/02/17 06:10:57;;;;;;;7.78;3.25;;;8.60;99.90;;;;;;8240456;28;20372;-79
2023/02/17 06:14:58;;;;;;;6.53;3.38;;;8.50;99.90;;;;;;8247633;28;20050;-79
2023/02/17 06:19:01;;;;;;;7.47;3.97;;;8.60;99.90;;;;;;8246383;28;20027;-78
2023/02/17 06:23:01;;;;;;;13.48;3.75;;;8.50;99.90;;;;;;8236586;28;20110;-78
2023/02/17 06:27:02;;;;;;;9.20;3.63;;;8.40;99.90;;;;;;8261470;28;20080;-79
2023/02/17 06:31:02;;;;;;;7.28;3.95;;;8.60;99.90;;;;;;8227881;28;20577;-79
2023/02/17 06:35:03;;;;;;;9.50;3.50;;;8.60;99.90;;;;;;8249050;28;20077;-79
2023/02/17 06:39:04;;;;;;;5.85;2.65;;;8.60;99.90;;;;;;8237999;28;20061;-79
2023/02/17 06:43:05;;;;;;;6.55;3.15;;;8.60;99.90;;;;;;8228504;28;20088;-78
2023/02/17 06:47:06;;;;;;;6.63;3.60;;;8.60;99.90;;;;;;8224300;28;20037;-79
2023/02/17 06:51:06;;;;;;;6.80;3.38;;;8.70;99.90;;;;;;8245904;28;20026;-79
2023/02/17 06:55:07;;;;;;;6.32;3.08;;;8.60;99.90;;;;;;8237288;28;20037;-78
2023/02/17 06:59:08;;;;;;;7.72;3.38;;;8.70;99.90;;;;;;8218101;28;20117;-79
2023/02/17 07:03:08;;;;;;;7.85;3.70;;;8.70;99.90;;;;;;8227171;28;20026;-78
2023/02/17 07:07:09;;;;;;;7.00;3.50;;;8.80;99.90;;;;;;8252250;28;20487;-79
2023/02/17 07:11:12;;;;;;;5.95;2.72;;;8.80;99.90;;;;;;8255346;28;20085;-78
2023/02/17 07:15:13;;;;;;;5.18;3.00;;;8.90;99.90;;;;;;8230628;28;20030;-79
2023/02/17 07:19:14;;;;;;;9.45;3.72;;;8.90;99.90;;;;;;8230993;28;20027;-79
2023/02/17 07:23:15;;;;;;;6.82;3.90;;;8.90;99.90;;;;;;8236928;28;20026;-78
2023/02/17 07:27:15;;;;;;;8.38;3.58;;;9.00;99.90;;;;;;8256268;28;20029;-79
2023/02/17 07:31:17;;;;;;;8.80;3.50;;;9.00;99.90;;;;;;8231407;28;20525;-79
2023/02/17 07:35:17;;;;;;;7.10;3.10;;;9.30;99.90;;;;;;8235711;28;20039;-79
2023/02/17 07:39:18;;;;;;;8.30;3.78;;;9.30;99.90;;;;;;8241576;28;20119;-79
2023/02/17 07:43:18;;;;;;;5.82;3.20;;;9.40;99.90;;;;;;8229680;28;20058;-79
2023/02/17 07:47:19;;;;;;;6.60;3.03;;;9.50;99.90;;;;;;8235356;28;20035;-78
2023/02/17 07:51:21;;;;;;;8.65;3.53;;;9.60;99.90;;;;;;8232976;28;20066;-78
2023/02/17 07:55:23;;;;;;;8.20;3.30;;;9.60;99.90;;;;;;8232633;28;20490;-79
2023/02/17 07:59:23;;;;;;;9.50;3.50;;;9.60;99.90;;;;;;8236954;28;20023;-78
2023/02/17 08:03:24;;;;;;;5.25;3.25;;;9.70;99.90;;;;;;8222553;28;20026;-78
2023/02/17 08:07:24;;;;;;;7.25;3.67;;;9.70;99.90;;;;;;8236744;28;20026;-79
2023/02/17 08:15:44;;;;;;;7.82;3.63;;;9.80;99.90;;;;;;8235290;28;20034;-78
2023/02/17 08:19:45;;;;;;;8.05;3.92;;;9.90;99.90;;;;;;8255344;28;20400;-79
2023/02/17 08:23:45;;;;;;;7.97;2.97;;;10.20;99.90;;;;;;8226156;28;20101;-78
2023/02/17 08:27:46;;;;;;;8.38;4.28;;;10.30;99.90;;;;;;8214717;28;20118;-78
2023/02/17 08:31:51;;;;;;;8.60;3.45;;;10.50;99.90;;;;;;8229665;28;20030;-79
2023/02/17 08:35:51;;;;;;;7.93;3.55;;;10.50;99.90;;;;;;8239927;28;20034;-79
2023/02/17 08:39:52;;;;;;;8.68;3.97;;;10.50;99.90;;;;;;8233028;28;21179;-79
2023/02/17 08:43:53;;;;;;;9.50;3.67;;;10.50;99.90;;;;;;8243184;28;20420;-79
2023/02/17 08:47:53;;;;;;;6.07;2.97;;;10.40;99.90;;;;;;8229217;28;20034;-79
2023/02/17 08:51:54;;;;;;;2.42;1.25;;;10.40;99.90;;;;;;8258817;28;20018;-78
2023/02/17 08:55:55;;;;;;;8.60;3.97;;;10.60;99.90;;;;;;8235343;28;20027;-79
2023/02/17 08:59:56;;;;;;;7.75;3.13;;;10.70;99.90;;;;;;8245392;28;20395;-79
2023/02/17 09:03:59;;;;;;;8.68;3.70;;;10.80;99.90;;;;;;8227861;28;20037;-79
2023/02/17 09:08:00;;;;;;;6.85;3.50;;;10.80;99.90;;;;;;8253106;28;20080;-79
2023/02/17 09:12:01;;;;;;;5.95;3.50;;;11.00;99.90;;;;;;8260344;28;20030;-78
2023/02/17 09:16:01;;;;;;;6.60;3.50;;;11.20;99.90;;;;;;8246499;28;20031;-79
2023/02/17 09:20:02;;;;;;;8.18;3.10;;;11.30;99.90;;;;;;8248695;28;20054;-79
2023/02/17 09:24:03;;;;;;;8.35;3.60;;;11.50;99.90;;;;;;8243844;28;20030;-78
2023/02/17 09:28:04;;;;;;;7.22;3.58;;;11.70;99.90;;;;;;8241410;28;20031;-79
2023/02/17 09:32:08;;;;;;;7.63;3.15;;;12.00;99.90;;;;;;8237058;28;20064;-80
2023/02/17 09:36:11;;;;;;;9.18;3.00;;;12.10;99.90;;;;;;8265627;28;20084;-80
2023/02/17 09:40:23;;;;;;;5.95;3.30;;;12.60;99.90;;;;;;8228012;28;20057;-79
2023/02/17 09:44:25;;;;;;;7.13;2.85;;;13.30;99.90;;;;;;8231931;28;20038;-78
2023/02/17 09:48:29;;;;;;;4.80;2.30;;;13.70;99.90;;;;;;8233080;28;20048;-80
2023/02/17 09:52:52;;;;;;;8.82;3.25;;;13.70;99.90;;;;;;8232650;28;20114;-79
2023/02/17 09:56:54;;;;;;;5.53;3.05;;;13.40;99.90;;;;;;8228640;28;20093;-79
2023/02/17 10:01:01;;;;;;;5.90;2.90;;;13.10;99.90;;;;;;8246462;28;20022;-79
2023/02/17 10:05:05;;;;;;;9.05;3.33;;;12.90;99.90;;;;;;8233149;28;20037;-79
2023/02/17 10:09:25;;;;;;;5.75;3.17;;;13.10;99.90;;;;;;8253196;28;20507;-79
2023/02/17 10:13:30;;;;;;;4.40;2.50;;;13.30;99.90;;;;;;8246754;28;20108;-79
2023/02/17 10:17:46;;;;;;;5.40;2.80;;;13.30;99.90;;;;;;8246446;28;20284;-77
2023/02/17 10:22:04;;;;;;;3.45;2.03;;;13.50;99.90;;;;;;8218550;28;20022;-79
2023/02/17 10:26:07;;;;;;;4.45;2.10;;;13.50;99.90;;;;;;8238537;28;20109;-79
2023/02/17 10:30:22;;;;;;;7.38;3.00;;;13.40;99.90;;;;;;8234789;28;20553;-79
2023/02/17 10:34:32;;;;;;;8.02;2.97;;;13.60;99.90;;;;;;8231775;28;20031;-79
2023/02/17 10:38:54;;;;;;;7.25;3.38;;;13.60;99.90;;;;;;8239121;28;20041;-79
2023/02/17 10:42:59;;;;;;;5.65;2.60;;;13.90;99.90;;;;;;8226406;28;20434;-80
2023/02/17 10:46:59;;;;;;;5.35;2.40;;;14.10;99.90;;;;;;8258181;28;20022;-78
2023/02/17 10:51:01;;;;;;;5.28;2.35;;;13.90;99.90;;;;;;8242119;28;20026;-79
2023/02/17 10:55:36;;;;;;;5.07;2.88;;;14.60;99.90;;;;;;8227941;28;20058;-80
2023/02/17 10:59:42;;;;;;;6.32;2.90;;;15.20;99.90;;;;;;8241230;28;20491;-79
2023/02/17 11:03:43;;;;;;;5.28;2.70;;;15.30;99.90;;;;;;8247778;28;20116;-79
2023/02/17 11:07:44;;;;;;;4.65;2.90;;;14.70;99.90;;;;;;8237219;28;20443;-78
2023/02/17 11:12:24;;;;;;;4.25;2.20;;;14.20;99.90;;;;;;8237110;28;20486;-79
2023/02/17 11:16:40;;;;;;;4.13;2.55;;;13.80;99.90;;;;;;8236156;28;20035;-79
2023/02/17 11:20:41;;;;;;;3.42;2.15;;;13.50;99.90;;;;;;8234599;28;20050;-78
2023/02/17 11:24:42;;;;;;;4.93;2.42;;;13.40;99.90;;;;;;8244640;28;20672;-79
2023/02/17 11:28:42;;;;;;;6.80;2.97;;;13.00;99.90;;;;;;8260964;28;20069;-79
2023/02/17 11:32:43;;;;;;;4.68;2.88;;;12.90;99.90;;;;;;8227249;28;20038;-78
2023/02/17 11:36:45;;;;;;;6.82;3.28;;;13.00;99.90;;;;;;8224250;28;20034;-79
2023/02/17 11:40:57;;;;;;;4.30;2.63;;;13.20;99.90;;;;;;8247522;28;20019;-79
2023/02/17 11:45:04;;;;;;;4.75;2.60;;;13.50;99.90;;;;;;8249697;28;20037;-78
2023/02/17 11:49:39;;;;;;;6.30;3.00;;;13.30;99.90;;;;;;8216370;28;20031;-79
2023/02/17 11:54:18;;;;;;;5.28;2.90;;;13.20;99.90;;;;;;8241282;28;20027;-79
2023/02/17 11:58:52;;;;;;;4.45;2.65;;;13.20;99.90;;;;;;8222917;28;20073;-79
2023/02/17 12:03:02;;;;;;;8.15;3.10;;;13.60;99.90;;;;;;8210356;28;20033;-78
2023/02/17 12:07:24;;;;;;;3.60;2.50;;;14.20;99.90;;;;;;8228273;28;20031;-80
2023/02/17 12:11:38;;;;;;;2.17;1.67;;;15.00;99.90;;;;;;8233903;28;20022;-79
2023/02/17 12:15:48;;;;;;;5.18;2.22;;;14.90;99.90;;;;;;8212833;28;20029;-79
2023/02/17 12:19:54;;;;;;;3.00;2.05;;;14.80;99.90;;;;;;8210162;28;20069;-79
2023/02/17 12:23:55;;;;;;;4.88;2.60;;;14.20;99.90;;;;;;8238180;28;20080;-79
2023/02/17 12:28:34;;;;;;;5.32;2.72;;;13.60;99.90;;;;;;8218065;28;20499;-78
2023/02/17 12:33:06;;;;;;;4.72;2.30;;;13.70;99.90;;;;;;8228342;28;20066;-79
2023/02/17 12:37:17;;;;;;;5.80;2.75;;;13.80;99.90;;;;;;8232779;28;20030;-79
2023/02/17 12:41:26;;;;;;;6.68;2.70;;;13.60;99.90;;;;;;8226249;28;20446;-79
2023/02/17 12:45:41;;;;;;;4.30;2.78;;;13.60;99.90;;;;;;8225976;28;20019;-79
2023/02/17 12:50:01;;;;;;;3.80;2.33;;;13.50;99.90;;;;;;8223890;28;20045;-79
2023/02/17 12:54:06;;;;;;;5.07;2.60;;;14.10;99.90;;;;;;8241256;28;20031;-79
2023/02/17 12:58:11;;;;;;;5.47;2.65;;;14.70;99.90;;;;;;8241620;28;20126;-80
2023/02/17 13:02:18;;;;;;;4.07;2.75;;;14.90;99.90;;;;;;8239101;28;20022;-78
2023/02/17 13:06:31;;;;;;;4.47;2.42;;;15.40;99.90;;;;;;8231049;28;20524;-79
2023/02/17 13:10:33;;;;;;;3.88;2.78;;;15.90;99.90;;;;;;8241633;28;20042;-79
2023/02/17 13:14:47;;;;;;;5.50;2.55;;;15.40;99.90;;;;;;8250452;28;20114;-79
2023/02/17 13:18:50;;;;;;;3.97;1.98;;;14.90;99.90;;;;;;8216827;28;20026;-79
2023/02/17 13:23:06;;;;;;;6.70;2.55;;;14.50;99.90;;;;;;8236335;28;20023;-78
2023/02/17 13:27:21;;;;;;;7.53;3.33;;;14.00;99.90;;;;;;8255154;28;20042;-78
2023/02/17 13:31:24;;;;;;;3.20;2.05;;;13.70;99.90;;;;;;8240000;28;20027;-79
2023/02/17 13:35:25;;;;;;;3.67;2.33;;;13.40;99.90;;;;;;8258480;28;20030;-79
2023/02/17 13:39:28;;;;;;;4.28;2.70;;;13.30;99.90;;;;;;8234267;28;20031;-79
2023/02/17 13:43:30;;;;;;;4.45;2.50;;;13.30;99.90;;;;;;8237143;28;20037;-78
2023/02/17 13:47:35;;;;;;;3.13;1.90;;;13.40;99.90;;;;;;8265411;28;20030;-79
2023/02/17 13:51:36;;;;;;;4.72;3.00;;;13.50;99.90;;;;;;8232836;28;20035;-79
2023/02/17 13:55:40;;;;;;;7.13;2.75;;;13.50;99.90;;;;;;8254827;28;20023;-79
2023/02/17 13:59:41;;;;;;;3.88;2.20;;;13.50;99.90;;;;;;8231782;28;20031;-79
2023/02/17 14:03:49;;;;;;;5.00;2.58;;;13.40;99.90;;;;;;8230661;28;20446;-79
2023/02/17 14:07:54;;;;;;;5.10;2.67;;;13.40;99.90;;;;;;8228446;28;20034;-78
2023/02/17 14:11:55;;;;;;;4.80;2.35;;;13.40;99.90;;;;;;8258213;28;20603;-79
2023/02/17 14:15:58;;;;;;;6.63;3.00;;;13.60;99.90;;;;;;8245488;28;20439;-78
2023/02/17 14:19:59;;;;;;;5.43;2.78;;;13.50;99.90;;;;;;8227725;28;20022;-80
2023/02/17 14:24:01;;;;;;;5.10;2.72;;;13.70;99.90;;;;;;8246671;28;20027;-77
2023/02/17 14:28:02;;;;;;;5.05;2.65;;;13.70;99.90;;;;;;8241069;28;20037;-79
2023/02/17 14:32:03;;;;;;;5.00;2.38;;;13.60;99.90;;;;;;8220074;28;20034;-80
2023/02/17 14:36:07;;;;;;;4.05;2.67;;;13.30;99.90;;;;;;8236804;28;20112;-77
2023/02/17 14:40:16;;;;;;;6.20;2.80;;;13.10;99.90;;;;;;8227451;28;20526;-78
2023/02/17 14:44:17;;;;;;;6.28;2.55;;;12.90;99.90;;;;;;8216237;28;20037;-79
2023/02/17 14:48:17;;;;;;;5.55;2.80;;;12.80;99.90;;;;;;8226350;28;20121;-79
2023/02/17 14:52:21;;;;;;;6.93;2.75;;;12.80;99.90;;;;;;8233155;28;20043;-79
2023/02/17 14:56:28;;;;;;;4.35;2.63;;;12.90;99.90;;;;;;8218783;28;20525;-80
2023/02/17 15:00:29;;;;;;;5.28;2.58;;;12.90;99.90;;;;;;8221246;28;20041;-79
2023/02/17 15:04:30;;;;;;;5.95;2.78;;;13.00;99.90;;;;;;8247539;28;20030;-78
2023/02/17 15:08:33;;;;;;;6.22;2.75;;;13.10;99.90;;;;;;8254519;28;20492;-79
2023/02/17 15:12:34;;;;;;;5.45;2.92;;;13.10;99.90;;;;;;8244299;28;20407;-79
2023/02/17 15:16:34;;;;;;;5.90;2.55;;;12.90;99.90;;;;;;8231966;28;20113;-78
2023/02/17 15:20:35;;;;;;;4.15;2.75;;;13.00;99.90;;;;;;8222553;28;20399;-79
2023/02/17 15:24:36;;;;;;;3.55;2.30;;;13.00;99.90;;;;;;8232825;28;20023;-81
2023/02/17 15:29:13;;;;;;;;;;;;;;;;;;;;;
2023/02/17 15:33:14;;;;;;;4.70;2.50;;;13.30;99.90;;;;;;8234155;28;20400;-79
2023/02/17 15:37:15;;;;;;;5.88;2.95;;;12.90;99.90;;;;;;8228400;28;20031;-80
2023/02/17 15:41:22;;;;;;;6.30;2.88;;;12.70;99.90;;;;;;8227826;28;20035;-82
2023/02/17 15:45:23;;;;;;;5.47;2.85;;;12.50;99.90;;;;;;8212892;28;20518;-82
2023/02/17 15:49:24;;;;;;;4.60;2.80;;;12.20;99.90;;;;;;8217165;28;20022;-81
2023/02/17 15:53:32;;;;;;;4.68;2.85;;;12.00;99.90;;;;;;8217074;28;20041;-82
2023/02/17 15:57:33;;;;;;;10.05;3.10;;;12.20;99.90;;;;;;8209467;28;20042;-82
2023/02/17 16:01:34;;;;;;;4.82;2.13;;;11.30;99.90;;;;;;8223001;28;20027;-82
2023/02/17 16:05:35;;;;;;;5.43;2.95;;;11.50;99.90;;;;;;8216620;28;20030;-82
2023/02/17 16:09:35;;;;;;;5.50;2.70;;;11.60;99.90;;;;;;8214951;28;20033;-82
2023/02/17 16:13:36;;;;;;;6.07;2.83;;;11.50;99.90;;;;;;8210370;28;20034;-82
2023/02/17 16:17:37;;;;;;;4.07;2.40;;;11.40;99.90;;;;;;8208469;28;20076;-81
2023/02/17 16:21:37;;;;;;;4.38;2.50;;;11.30;99.90;;;;;;8207740;28;20087;-82
2023/02/17 16:25:41;;;;;;;5.47;2.60;;;11.20;99.90;;;;;;8210259;28;20039;-82
2023/02/17 16:29:42;;;;;;;5.15;2.42;;;11.00;99.90;;;;;;8208647;28;20037;-81
2023/02/17 16:33:43;;;;;;;4.78;2.58;;;11.00;99.90;;;;;;8228375;28;20035;-82
2023/02/17 16:37:55;;;;;;;4.90;2.72;;;10.90;99.90;;;;;;8220486;28;20037;-79
2023/02/17 16:41:56;;;;;;;2.85;2.05;;;10.70;99.90;;;;;;8218646;28;20153;-81
2023/02/17 16:45:59;;;;;;;3.53;2.28;;;10.70;99.90;;;;;;8221574;28;20504;-81
2023/02/17 16:50:00;;;;;;;8.10;2.70;;;10.70;99.90;;;;;;8235125;28;20093;-79
2023/02/17 16:54:00;;;;;;;9.80;2.47;;;10.60;99.90;;;;;;8225289;28;20038;-78
2023/02/17 16:58:02;;;;;;;4.47;2.40;;;10.60;99.90;;;;;;8237537;28;20048;-78
2023/02/17 17:02:03;;;;;;;4.03;2.40;;;10.40;99.90;;;;;;8226604;28;20039;-79
2023/02/17 17:06:28;;;;;;;4.90;1.83;;;10.30;99.90;;;;;;8234682;28;20519;-77
2023/02/17 17:10:30;;;;;;;3.90;2.13;;;10.20;99.90;;;;;;8210183;28;20113;-78
2023/02/17 17:14:31;;;;;;;8.55;2.63;;;10.20;99.90;;;;;;8216770;28;20678;-80
2023/02/17 17:18:31;;;;;;;6.13;2.40;;;10.20;99.90;;;;;;8254564;28;20096;-80
2023/02/17 17:22:32;;;;;;;9.02;3.13;;;10.20;99.90;;;;;;8228623;28;20015;-80
2023/02/17 17:26:40;;;;;;;6.38;2.50;;;10.30;99.90;;;;;;8223393;28;20236;-81
2023/02/17 17:30:40;;;;;;;4.07;2.35;;;10.40;99.90;;;;;;8234410;28;20086;-80
2023/02/17 17:34:42;;;;;;;5.22;3.00;;;10.40;99.90;;;;;;8218719;28;20027;-80
2023/02/17 17:38:43;;;;;;;5.18;3.00;;;10.40;99.90;;;;;;8214661;28;20488;-80
2023/02/17 17:42:44;;;;;;;6.63;3.17;;;10.40;99.90;;;;;;8226867;28;20030;-79
2023/02/17 17:46:45;;;;;;;5.15;2.85;;;10.50;99.90;;;;;;8225989;28;20114;-81
2023/02/17 17:50:48;;;;;;;6.45;2.95;;;10.60;99.90;;;;;;8243531;28;20042;-80
2023/02/17 17:54:48;;;;;;;5.60;3.35;;;10.60;99.90;;;;;;8234880;28;20039;-81
2023/02/17 17:58:50;;;;;;;6.72;3.42;;;10.50;99.90;;;;;;8221448;28;20127;-79
2023/02/17 18:02:50;;;;;;;6.82;3.28;;;10.50;99.90;;;;;;8219295;28;20016;-80
2023/02/17 18:06:54;;;;;;;7.32;2.78;;;10.50;99.90;;;;;;8221262;28;20023;-79
2023/02/17 18:10:54;;;;;;;5.55;3.15;;;10.50;99.90;;;;;;8230987;28;20066;-79
2023/02/17 18:14:55;;;;;;;6.65;3.13;;;10.50;99.90;;;;;;8228628;28;20027;-79
2023/02/17 18:18:58;;;;;;;6.47;2.70;;;10.50;99.90;;;;;;8254166;28;20022;-79
2023/02/17 18:22:58;;;;;;;7.90;2.92;;;10.30;99.90;;;;;;8245842;28;20041;-79
2023/02/17 18:26:59;;;;;;;5.38;3.05;;;10.40;99.90;;;;;;8242324;28;20026;-81
2023/02/17 18:31:06;;;;;;;5.50;2.60;;;10.30;99.90;;;;;;8239755;28;20026;-80
2023/02/17 18:35:07;;;;;;;7.50;3.10;;;10.20;99.90;;;;;;8234862;28;20097;-79
2023/02/17 18:39:08;;;;;;;6.13;3.03;;;10.00;99.90;;;;;;8220685;28;20038;-79
2023/02/17 18:43:08;;;;;;;5.07;2.60;;;9.90;99.90;;;;;;8226662;28;20263;-79
2023/02/17 18:47:12;;;;;;;7.05;3.13;;;9.70;99.90;;;;;;8226528;28;20046;-79
2023/02/17 18:51:15;;;;;;;5.57;2.80;;;9.70;99.90;;;;;;8232289;28;20031;-80
2023/02/17 18:55:15;;;;;;;5.97;3.25;;;9.50;99.90;;;;;;8232631;28;20027;-79
2023/02/17 18:59:16;;;;;;;5.00;2.80;;;9.50;99.90;;;;;;8228871;28;20121;-80
2023/02/17 19:03:16;;;;;;;3.95;2.83;;;9.40;99.90;;;;;;8230550;28;20467;-79
2023/02/17 19:07:17;;;;;;;5.05;2.63;;;9.50;99.90;;;;;;8237411;28;20022;-80
2023/02/17 19:11:19;;;;;;;7.82;3.10;;;9.60;99.90;;;;;;8241180;28;20414;-80
2023/02/17 19:15:20;;;;;;;6.13;3.22;;;9.60;99.90;;;;;;8249684;28;20648;-80
2023/02/17 19:19:20;;;;;;;9.20;3.17;;;9.70;99.90;;;;;;8214875;28;20033;-79
2023/02/17 19:23:21;;;;;;;5.47;3.20;;;9.60;99.90;;;;;;8222851;28;20118;-79
2023/02/17 19:27:21;;;;;;;5.93;3.33;;;9.50;99.90;;;;;;8223692;28;20015;-78
2023/02/17 19:31:22;;;;;;;8.32;3.30;;;9.40;99.90;;;;;;8238818;28;20062;-80
2023/02/17 19:35:23;;;;;;;6.88;3.67;;;9.50;99.90;;;;;;8246932;28;20242;-80
2023/02/17 19:39:23;;;;;;;5.97;3.38;;;9.50;99.90;;;;;;8230590;28;20027;-80
2023/02/17 19:43:24;;;;;;;13.45;4.15;;;9.50;99.90;;;;;;8232295;28;20030;-79
2023/02/17 19:47:24;;;;;;;7.13;3.22;;;9.40;99.90;;;;;;8235185;28;20081;-79
2023/02/17 19:51:25;;;;;;;10.15;3.97;;;9.40;99.90;;;;;;8245707;28;20427;-80
2023/02/17 19:55:25;;;;;;;4.78;2.90;;;9.30;99.90;;;;;;8237846;28;20031;-80
2023/02/17 19:59:26;;;;;;;7.85;3.97;;;9.10;99.90;;;;;;8231573;28;20023;-81
2023/02/17 20:03:26;;;;;;;7.10;3.53;;;9.20;99.90;;;;;;8223321;28;20022;-81
2023/02/17 20:07:28;;;;;;;6.68;3.58;;;9.10;99.90;;;;;;8230604;28;20376;-81
2023/02/17 20:11:28;;;;;;;6.53;3.80;;;9.10;99.90;;;;;;8243534;28;20081;-79
2023/02/17 20:15:29;;;;;;;6.60;3.58;;;9.10;99.90;;;;;;8242580;28;20031;-79
2023/02/17 20:19:29;;;;;;;8.13;4.05;;;9.30;99.90;;;;;;8221976;28;20026;-80
2023/02/17 20:23:31;;;;;;;8.57;3.55;;;9.50;99.90;;;;;;8222392;28;20053;-81
2023/02/17 20:27:32;;;;;;;5.88;3.25;;;9.70;99.90;;;;;;8239343;28;20033;-81
2023/02/17 20:31:34;;;;;;;6.18;3.70;;;9.70;99.90;;;;;;8239650;28;20034;-81
2023/02/17 20:35:35;;;;;;;5.70;3.20;;;9.80;99.90;;;;;;8223015;28;20061;-81
2023/02/17 20:39:37;;;;;;;6.10;3.10;;;9.80;99.90;;;;;;8231927;28;20789;-81
2023/02/17 20:43:38;;;;;;;5.82;3.17;;;9.90;99.90;;;;;;8224414;28;20526;-81
2023/02/17 20:47:38;;;;;;;7.38;3.67;;;10.00;99.90;;;;;;8225713;28;20035;-81
2023/02/17 20:51:39;;;;;;;6.88;3.72;;;9.90;99.90;;;;;;8260212;28;20496;-81
2023/02/17 20:55:39;;;;;;;5.15;3.15;;;9.90;99.90;;;;;;8235313;28;20042;-80
2023/02/17 20:59:40;;;;;;;6.82;3.50;;;9.80;99.90;;;;;;8230288;28;20030;-81
2023/02/17 21:03:41;;;;;;;8.23;3.58;;;9.60;99.90;;;;;;8217775;28;20105;-81
2023/02/17 21:07:44;;;;;;;6.28;3.42;;;9.40;99.90;;;;;;8246815;28;20099;-82
2023/02/17 21:11:45;;;;;;;8.52;4.15;;;9.30;99.90;;;;;;8240186;28;20173;-81
2023/02/17 21:15:46;;;;;;;7.07;3.25;;;9.20;99.90;;;;;;8227684;28;20050;-80
2023/02/17 21:19:46;;;;;;;5.78;3.03;;;9.20;99.90;;;;;;8248471;28;20033;-81